Time;durP1;ratioP1;P1;durP2;ratioP2;P2;SDS_P1;SDS_P2;PMS_P1;PMS_P2;Temp;Humidity;BMP_temperature;BMP_pressure;BME280_temperature;BME280_humidity;BME280_pressure;Samples;Min_cycle;Max_cycle;Signal;HPM_P1;HPM_P2
2021/11/27 00:01:23;;;;;;;9.18;6.05;;;;;;;8.69;63.52;98281.22;4956466;28;113685;-64
2021/11/27 00:03:54;;;;;;;9.55;5.90;;;;;;;8.68;63.45;98283.97;4939332;28;113841;-64
2021/11/27 00:06:23;;;;;;;8.95;5.78;;;;;;;8.65;63.34;98279.78;4929467;28;124613;-64
2021/11/27 00:08:51;;;;;;;7.13;4.75;;;;;;;8.63;63.52;98281.72;4933715;28;124551;-64
2021/11/27 00:11:18;;;;;;;4.47;3.30;;;;;;;8.56;63.06;98280.50;4926831;28;114877;-64
2021/11/27 00:13:46;;;;;;;4.55;3.03;;;;;;;8.51;63.24;98278.25;4928759;28;113155;-64
2021/11/27 00:16:13;;;;;;;4.55;2.60;;;;;;;8.48;63.30;98283.75;4930262;28;124063;-64
2021/11/27 00:18:41;;;;;;;4.60;3.03;;;;;;;8.44;63.27;98286.72;4934777;28;124148;-67
2021/11/27 00:21:11;;;;;;;4.32;3.08;;;;;;;8.39;63.30;98285.25;4926229;28;114185;-64
2021/11/27 00:23:40;;;;;;;3.60;2.53;;;;;;;8.35;63.22;98283.81;4934996;28;113821;-64
2021/11/27 00:26:10;;;;;;;4.15;2.75;;;;;;;8.31;63.40;98277.09;4929889;28;124139;-65
2021/11/27 00:28:38;;;;;;;4.78;3.05;;;;;;;8.27;63.10;98280.94;4930589;28;124339;-64
2021/11/27 00:31:10;;;;;;;4.38;2.88;;;;;;;8.22;63.17;98288.34;4932715;28;116693;-65
2021/11/27 00:33:40;;;;;;;7.20;2.88;;;;;;;8.18;63.19;98287.75;4940845;28;117303;-65
2021/11/27 00:36:09;;;;;;;2.97;1.90;;;;;;;8.14;62.99;98285.47;4923500;28;123236;-65
2021/11/27 00:38:37;;;;;;;3.25;1.77;;;;;;;8.06;63.13;98287.84;4931910;28;123866;-65
2021/11/27 00:41:05;;;;;;;2.83;1.70;;;;;;;7.98;62.74;98291.88;4925720;28;113265;-65
2021/11/27 00:43:33;;;;;;;1.80;1.13;;;;;;;7.91;62.66;98290.69;4941727;28;113706;-65
2021/11/27 00:46:01;;;;;;;1.60;1.02;;;;;;;7.85;63.14;98288.50;4932785;28;123838;-65
2021/11/27 00:48:28;;;;;;;1.40;1.00;;;;;;;7.78;62.65;98287.31;4941580;28;124165;-65
2021/11/27 00:51:03;;;;;;;2.00;1.10;;;;;;;7.73;62.80;98292.06;4930588;28;114615;-65
2021/11/27 00:53:31;;;;;;;1.95;1.25;;;;;;;7.68;62.84;98288.91;4925673;28;114205;-65
2021/11/27 00:55:58;;;;;;;1.92;1.45;;;;;;;7.63;62.90;98281.38;4932522;28;124096;-65
2021/11/27 00:58:26;;;;;;;1.60;1.10;;;;;;;7.57;63.00;98293.22;4932518;28;124198;-65
2021/11/27 01:00:59;;;;;;;3.55;1.27;;;;;;;7.53;62.96;98291.72;4931401;28;113725;-64
2021/11/27 01:03:30;;;;;;;2.22;1.30;;;;;;;7.48;62.98;98285.13;4935150;28;114811;-64
2021/11/27 01:06:00;;;;;;;2.15;1.35;;;;;;;7.42;63.00;98289.03;4932385;28;123261;-65
2021/11/27 01:08:28;;;;;;;2.85;1.30;;;;;;;7.38;62.79;98282.31;4934384;28;122908;-65
2021/11/27 01:11:20;;;;;;;2.00;1.30;;;;;;;7.34;62.80;98286.13;4931924;28;113689;-65
2021/11/27 01:13:49;;;;;;;1.90;1.30;;;;;;;7.30;62.79;98284.69;4931492;28;113619;-64
2021/11/27 01:16:18;;;;;;;1.58;1.15;;;;;;;7.28;62.96;98283.97;4928876;28;123331;-65
2021/11/27 01:18:47;;;;;;;1.98;1.35;;;;;;;7.25;62.74;98292.06;4933801;28;124100;-65
2021/11/27 01:21:18;;;;;;;2.35;1.52;;;;;;;7.22;63.03;98304.50;4928366;28;115300;-65
2021/11/27 01:23:47;;;;;;;2.38;1.27;;;;;;;7.20;62.90;98303.78;4929634;28;115266;-64
2021/11/27 01:26:14;;;;;;;1.55;1.20;;;;;;;7.16;63.07;98304.94;4929475;28;124177;-64
2021/11/27 01:28:41;;;;;;;2.25;1.20;;;;;;;7.12;62.86;98308.75;4929074;28;123962;-64
2021/11/27 01:31:09;;;;;;;2.30;1.40;;;;;;;7.07;62.63;98305.59;4929671;28;116002;-64
2021/11/27 01:33:36;;;;;;;1.70;1.00;;;;;;;7.03;62.88;98314.69;4927447;28;112814;-64
2021/11/27 01:36:05;;;;;;;1.73;1.20;;;;;;;6.99;62.87;98315.84;4927969;28;123037;-64
2021/11/27 01:38:33;;;;;;;2.35;1.33;;;;;;;6.95;62.94;98317.00;4935442;28;123039;-64
2021/11/27 01:41:00;;;;;;;2.95;1.10;;;;;;;6.91;62.91;98320.78;4930209;28;114526;-64
2021/11/27 01:43:31;;;;;;;1.77;1.25;;;;;;;6.86;62.40;98317.66;4930427;28;113120;-64
2021/11/27 01:45:59;;;;;;;1.70;1.05;;;;;;;6.77;62.45;98327.88;4928984;28;123246;-64
2021/11/27 01:48:26;;;;;;;1.25;0.88;;;;;;;6.68;62.66;98325.88;4922152;28;123154;-64
2021/11/27 01:51:03;;;;;;;1.67;1.08;;;;;;;6.60;62.59;98322.94;4928798;28;114595;-65
2021/11/27 01:53:35;;;;;;;1.13;0.82;;;;;;;6.53;62.27;98337.47;4929273;28;113682;-64
2021/11/27 01:56:07;;;;;;;1.65;1.10;;;;;;;6.43;62.45;98337.25;4918714;28;122835;-65
2021/11/27 01:58:34;;;;;;;2.67;1.10;;;;;;;6.34;62.43;98338.72;4929823;28;124283;-65
2021/11/27 02:01:10;;;;;;;1.90;1.20;;;;;;;6.25;62.67;98344.59;4926383;28;113742;-65
2021/11/27 02:03:41;;;;;;;2.45;1.40;;;;;;;6.18;62.17;98345.97;4939314;28;113269;-65
2021/11/27 02:06:17;;;;;;;2.92;1.77;;;;;;;6.10;62.16;98349.09;4928476;28;122900;-65
2021/11/27 02:08:47;;;;;;;3.67;1.70;;;;;;;6.01;62.35;98352.38;4932239;28;123315;-65
2021/11/27 02:11:19;;;;;;;2.80;1.65;;;;;;;5.94;62.41;98351.88;4909281;28;114383;-66
2021/11/27 02:13:47;;;;;;;2.58;1.45;;;;;;;5.89;62.18;98359.22;4929523;28;114921;-66
2021/11/27 02:16:14;;;;;;;2.50;1.30;;;;;;;5.83;62.09;98349.13;4927447;28;122887;-66
2021/11/27 02:18:43;;;;;;;3.05;1.45;;;;;;;5.76;62.07;98353.09;4928519;28;123184;-66
2021/11/27 02:21:14;;;;;;;2.60;1.60;;;;;;;5.69;62.37;98359.69;4931340;28;113892;-66
2021/11/27 02:23:42;;;;;;;2.60;1.23;;;;;;;5.63;62.34;98353.91;4933973;28;113092;-66
2021/11/27 02:26:15;;;;;;;2.50;1.30;;;;;;;5.60;62.29;98359.34;4936211;28;124619;-66
2021/11/27 02:28:52;;;;;;;1.95;1.25;;;;;;;5.56;62.65;98368.38;4938987;28;123248;-65
2021/11/27 02:31:22;;;;;;;1.80;1.00;;;;;;;5.54;62.36;98369.38;4930958;28;115051;-65
2021/11/27 02:33:49;;;;;;;1.63;0.90;;;;;;;5.52;62.61;98366.88;4930442;28;114004;-66
2021/11/27 02:36:17;;;;;;;1.30;0.80;;;;;;;5.49;62.50;98367.06;4932873;28;123235;-65
2021/11/27 02:38:44;;;;;;;1.08;0.80;;;;;;;5.46;62.40;98362.00;4940700;28;123402;-65
2021/11/27 02:41:13;;;;;;;1.80;1.35;;;;;;;5.42;62.57;98365.78;4928617;28;113400;-65
2021/11/27 02:43:41;;;;;;;1.23;0.90;;;;;;;5.39;62.68;98361.56;4936086;28;114309;-65
2021/11/27 02:46:08;;;;;;;1.30;0.80;;;;;;;5.37;62.43;98362.59;4934284;28;124912;-65
2021/11/27 02:48:36;;;;;;;1.35;0.85;;;;;;;5.35;62.50;98364.47;4930675;28;124442;-65
2021/11/27 02:51:03;;;;;;;2.05;0.90;;;;;;;5.33;62.53;98361.09;4926233;28;113115;-65
2021/11/27 02:53:32;;;;;;;2.20;1.00;;;;;;;5.31;62.64;98368.25;4935695;28;113163;-65
2021/11/27 02:56:02;;;;;;;1.52;1.00;;;;;;;5.31;62.47;98374.31;4913407;28;123524;-65
2021/11/27 02:58:29;;;;;;;2.20;1.20;;;;;;;5.31;62.61;98374.31;4948389;28;123119;-65
2021/11/27 03:00:59;;;;;;;1.83;1.15;;;;;;;5.30;62.65;98382.31;4934532;28;115556;-65
2021/11/27 03:03:29;;;;;;;1.65;1.13;;;;;;;5.28;62.75;98378.94;4935020;28;114277;-65
2021/11/27 03:05:56;;;;;;;1.90;1.40;;;;;;;5.26;62.83;98382.50;4945553;28;123702;-65
2021/11/27 03:08:23;;;;;;;2.13;1.20;;;;;;;5.25;62.59;98380.81;4940654;28;124050;-65
2021/11/27 03:10:51;;;;;;;2.03;1.23;;;;;;;5.25;62.72;98391.31;4935944;28;115036;-65
2021/11/27 03:13:29;;;;;;;1.67;1.17;;;;;;;5.24;62.67;98389.63;4930603;28;112980;-65
2021/11/27 03:15:56;;;;;;;2.15;1.30;;;;;;;5.23;62.99;98387.94;4930615;28;123280;-65
2021/11/27 03:18:24;;;;;;;2.30;1.10;;;;;;;5.24;62.76;98392.25;4916067;28;124223;-65
2021/11/27 03:20:53;;;;;;;1.95;1.30;;;;;;;5.25;62.98;98393.09;4934007;28;113471;-64
2021/11/27 03:23:21;;;;;;;2.20;1.30;;;;;;;5.23;63.01;98398.41;4934426;28;112949;-64
2021/11/27 03:25:49;;;;;;;2.17;1.38;;;;;;;5.24;62.74;98400.13;4950106;28;123545;-65
2021/11/27 03:28:16;;;;;;;2.78;1.27;;;;;;;5.25;62.86;98408.81;4942688;28;124893;-65
2021/11/27 03:30:45;;;;;;;3.47;1.40;;;;;;;5.24;62.70;98410.63;4932783;28;114862;-65
2021/11/27 03:33:14;;;;;;;3.30;1.30;;;;;;;5.23;62.84;98403.66;4928484;28;113224;-65
2021/11/27 03:35:42;;;;;;;2.83;1.60;;;;;;;5.22;62.94;98407.25;4922616;28;122908;-65
2021/11/27 03:38:10;;;;;;;3.25;1.70;;;;;;;5.23;62.82;98414.16;4912711;28;123463;-65
2021/11/27 03:40:41;;;;;;;4.30;1.77;;;;;;;5.23;63.02;98424.66;4929197;28;113499;-65
2021/11/27 03:43:09;;;;;;;3.45;2.10;;;;;;;5.23;62.70;98429.91;4930319;28;113595;-65
2021/11/27 03:45:36;;;;;;;4.90;2.50;;;;;;;5.23;62.85;98427.28;4931261;28;124048;-65
2021/11/27 03:48:13;;;;;;;4.38;2.20;;;;;;;5.23;62.53;98423.81;4930743;28;125767;-65
2021/11/27 03:51:01;;;;;;;5.35;3.08;;;;;;;5.22;62.77;98428.25;4927847;28;115526;-65
2021/11/27 03:53:33;;;;;;;4.93;2.90;;;;;;;5.23;63.20;98434.31;4947736;28;114242;-65
2021/11/27 03:56:06;;;;;;;5.47;3.20;;;;;;;5.23;62.93;98435.16;4925837;28;122941;-65
2021/11/27 03:58:34;;;;;;;6.30;3.65;;;;;;;5.23;62.88;98440.41;4927951;28;123044;-65
2021/11/27 04:01:07;;;;;;;8.05;4.20;;;;;;;5.23;63.11;98439.56;4938255;28;114469;-65
2021/11/27 04:03:38;;;;;;;6.30;4.03;;;;;;;5.23;63.12;98444.81;4940029;28;113103;-65
2021/11/27 04:06:08;;;;;;;7.45;4.55;;;;;;;5.24;62.96;98441.28;4940211;28;123287;-64
2021/11/27 04:08:37;;;;;;;7.35;4.57;;;;;;;5.24;62.84;98442.09;4933090;28;123484;-64
2021/11/27 04:11:05;;;;;;;8.13;5.20;;;;;;;5.26;62.83;98445.47;4934703;28;114331;-64
2021/11/27 04:13:34;;;;;;;7.57;4.90;;;;;;;5.26;62.92;98450.72;4934128;28;113085;-64
2021/11/27 04:16:02;;;;;;;8.23;5.30;;;;;;;5.26;62.84;98450.72;4933783;28;123387;-64
2021/11/27 04:18:30;;;;;;;7.72;4.70;;;;;;;5.28;62.86;98468.16;4944416;28;123358;-64
2021/11/27 04:20:58;;;;;;;8.25;4.95;;;;;;;5.25;62.92;98470.06;4933033;28;113533;-64
2021/11/27 04:23:27;;;;;;;7.95;5.32;;;;;;;5.25;62.67;98470.06;4930974;28;113157;-63
2021/11/27 04:25:57;;;;;;;8.65;5.70;;;;;;;5.23;62.83;98471.06;4933704;28;124704;-63
2021/11/27 04:28:24;;;;;;;8.25;4.97;;;;;;;5.20;63.00;98472.09;4926283;28;124082;-63
2021/11/27 04:30:52;;;;;;;7.10;4.75;;;;;;;5.19;62.80;98480.91;4939070;28;113874;-63
2021/11/27 04:33:23;;;;;;;8.07;5.05;;;;;;;5.18;63.02;98473.97;4937971;28;113218;-63
2021/11/27 04:35:53;;;;;;;7.60;4.43;;;;;;;5.18;63.06;98484.47;4928483;28;123381;-63
2021/11/27 04:38:24;;;;;;;6.97;4.93;;;;;;;5.18;62.90;98479.22;4932595;28;123181;-63
2021/11/27 04:40:53;;;;;;;8.55;5.07;;;;;;;5.21;62.99;98489.53;4947727;28;114432;-63
2021/11/27 04:43:20;;;;;;;7.47;4.65;;;;;;;5.23;63.33;98487.63;4932696;28;114182;-63
2021/11/27 04:45:48;;;;;;;7.80;5.07;;;;;;;5.25;63.01;98491.03;4925550;28;123366;-63
2021/11/27 04:48:17;;;;;;;8.73;5.10;;;;;;;5.28;63.22;98494.41;4932212;28;123030;-63
2021/11/27 04:50:48;;;;;;;9.02;5.25;;;;;;;5.32;63.38;98495.91;4926968;28;114612;-64
2021/11/27 04:53:17;;;;;;;10.45;6.22;;;;;;;5.34;63.08;98499.28;4933849;28;113224;-65
2021/11/27 04:55:45;;;;;;;9.00;5.70;;;;;;;5.36;63.15;98497.41;4929964;28;122821;-63
2021/11/27 04:58:16;;;;;;;9.63;5.20;;;;;;;5.38;63.01;98503.41;4926300;28;122916;-64
2021/11/27 05:00:48;;;;;;;8.90;5.55;;;;;;;5.40;63.16;98514.66;4929593;28;113767;-64
2021/11/27 05:03:24;;;;;;;10.05;6.13;;;;;;;5.42;63.15;98502.25;4943264;28;113192;-64
2021/11/27 05:05:51;;;;;;;9.70;5.85;;;;;;;5.44;63.30;98513.50;4924314;28;123087;-64
2021/11/27 05:08:18;;;;;;;9.80;5.68;;;;;;;5.46;63.03;98514.25;4932289;28;125028;-64
2021/11/27 05:10:48;;;;;;;10.75;6.07;;;;;;;5.49;63.11;98519.34;4927602;28;113484;-64
2021/11/27 05:13:16;;;;;;;11.18;6.18;;;;;;;5.52;63.03;98519.16;4931141;28;114019;-64
2021/11/27 05:15:44;;;;;;;10.20;5.95;;;;;;;5.54;63.05;98522.53;4935186;28;123087;-64
2021/11/27 05:18:15;;;;;;;12.05;6.53;;;;;;;5.56;62.97;98520.66;4938339;28;123461;-64
2021/11/27 05:21:20;;;;;;;9.80;6.00;;;;;;;5.60;63.05;98526.56;4931047;28;114312;-65
2021/11/27 05:23:47;;;;;;;10.75;6.20;;;;;;;5.60;63.00;98519.50;4932746;28;114169;-65
2021/11/27 05:26:33;;;;;;;15.10;6.65;;;;;;;5.62;63.29;98520.25;4933631;28;124718;-65
2021/11/27 05:29:23;;;;;;;13.25;7.00;;;;;;;5.62;63.10;98525.50;4936471;28;125215;-65
2021/11/27 05:35:17;;;;;;;12.57;6.38;;;;;;;5.65;63.31;98530.59;4906698;28;114160;-67
2021/11/27 05:37:45;;;;;;;13.73;6.88;;;;;;;5.66;63.28;98532.25;4932831;28;123030;-67
2021/11/27 05:40:13;;;;;;;11.90;6.07;;;;;;;5.68;63.02;98533.94;4929793;28;124561;-67
2021/11/27 05:42:45;;;;;;;12.60;6.55;;;;;;;5.71;63.17;98544.25;4936398;28;115069;-66
2021/11/27 05:45:12;;;;;;;11.38;5.95;;;;;;;5.73;63.38;98545.84;4930283;28;114363;-67
2021/11/27 05:47:42;;;;;;;12.32;6.50;;;;;;;5.75;63.11;98549.22;4924938;28;123233;-66
2021/11/27 05:50:14;;;;;;;13.27;6.80;;;;;;;5.78;63.12;98550.81;4935955;28;123736;-67
2021/11/27 05:52:42;;;;;;;14.30;6.95;;;;;;;5.81;63.33;98558.50;4931253;28;114600;-66
2021/11/27 05:55:09;;;;;;;13.63;6.50;;;;;;;5.84;63.20;98550.44;4932601;28;113722;-66
2021/11/27 05:57:41;;;;;;;12.70;6.38;;;;;;;5.85;63.21;98562.63;4933724;28;123849;-65
2021/11/27 06:00:10;;;;;;;15.05;6.75;;;;;;;5.88;63.27;98567.69;4936932;28;124687;-66
2021/11/27 06:02:40;;;;;;;13.05;6.65;;;;;;;5.90;63.16;98571.06;4941612;28;114924;-66
2021/11/27 06:05:08;;;;;;;14.55;6.80;;;;;;;5.92;63.37;98570.97;4932614;28;114364;-65
2021/11/27 06:07:36;;;;;;;12.43;6.32;;;;;;;5.94;63.33;98582.22;4929684;28;124715;-65
2021/11/27 06:10:05;;;;;;;14.27;6.38;;;;;;;5.96;62.94;98585.63;4932589;28;124229;-65
2021/11/27 06:12:33;;;;;;;12.55;7.03;;;;;;;5.97;63.30;98590.81;4939537;28;114696;-65
2021/11/27 06:15:00;;;;;;;15.32;6.88;;;;;;;6.00;63.14;98598.47;4926673;28;114524;-66
2021/11/27 06:17:28;;;;;;;12.88;6.30;;;;;;;6.00;63.09;98593.22;4930036;28;124081;-64
2021/11/27 06:19:55;;;;;;;10.82;6.40;;;;;;;6.01;62.92;98600.19;4929243;28;124554;-65
2021/11/27 06:22:22;;;;;;;13.35;6.88;;;;;;;6.03;63.41;98603.56;4925382;28;115734;-66
2021/11/27 06:24:50;;;;;;;10.75;6.35;;;;;;;6.04;63.09;98605.22;4952998;28;115027;-67
2021/11/27 06:27:17;;;;;;;11.60;6.60;;;;;;;6.06;62.87;98612.19;4934897;28;123799;-66
2021/11/27 06:29:44;;;;;;;12.85;6.45;;;;;;;6.06;63.11;98607.75;4935638;28;124705;-66
2021/11/27 06:32:12;;;;;;;11.75;6.57;;;;;;;6.08;62.89;98610.28;4924585;28;114655;-66
2021/11/27 06:34:40;;;;;;;11.88;6.65;;;;;;;6.10;63.10;98608.41;4936559;28;113952;-66
2021/11/27 06:37:08;;;;;;;15.20;7.28;;;;;;;6.10;63.07;98614.50;4931825;28;124313;-64
2021/11/27 06:39:37;;;;;;;13.50;7.03;;;;;;;6.12;63.32;98622.28;4935275;28;124427;-64
2021/11/27 06:42:05;;;;;;;16.08;7.13;;;;;;;6.13;63.01;98634.50;4932525;28;114173;-65
2021/11/27 06:44:51;;;;;;;13.23;6.97;;;;;;;6.14;63.20;98630.94;4934228;28;115952;-62
2021/11/27 06:47:23;;;;;;;13.45;6.82;;;;;;;6.14;62.97;98636.19;4930396;28;123308;-62
2021/11/27 06:49:51;;;;;;;13.02;7.43;;;;;;;6.15;63.21;98643.16;4929842;28;124452;-63
2021/11/27 06:52:19;;;;;;;12.75;6.93;;;;;;;6.17;62.89;98651.78;4941813;28;114107;-62
2021/11/27 06:54:46;;;;;;;12.32;6.45;;;;;;;6.17;63.13;98651.78;4926893;28;113971;-62
2021/11/27 06:57:14;;;;;;;12.75;6.45;;;;;;;6.18;62.91;98654.31;4930322;28;124019;-63
2021/11/27 06:59:42;;;;;;;14.30;7.13;;;;;;;6.19;62.90;98655.16;4940933;28;124008;-63
2021/11/27 07:02:35;;;;;;;15.38;6.85;;;;;;;6.20;63.37;98662.09;4920199;28;115004;-63
2021/11/27 07:05:40;;;;;;;15.70;7.22;;;;;;;6.19;62.82;98665.66;4930361;28;113890;-63
2021/11/27 07:08:11;;;;;;;18.05;7.70;;;;;;;6.19;62.92;98670.91;4945564;28;124968;-64
2021/11/27 07:10:52;;;;;;;15.10;7.15;;;;;;;6.19;62.99;98676.19;4931177;28;123831;-65
2021/11/27 07:13:22;;;;;;;14.38;7.38;;;;;;;6.21;63.04;98680.38;4930764;28;114285;-64
2021/11/27 07:15:55;;;;;;;13.18;6.90;;;;;;;6.22;63.20;98682.09;4934763;28;114039;-64
2021/11/27 07:18:22;;;;;;;15.48;7.47;;;;;;;6.23;63.23;98682.94;4931194;28;124588;-62
2021/11/27 07:20:50;;;;;;;17.15;7.45;;;;;;;6.24;62.95;98687.25;4928710;28;123930;-63
2021/11/27 07:23:17;;;;;;;18.85;7.63;;;;;;;6.24;63.25;98695.13;4941922;28;114356;-63
2021/11/27 07:25:46;;;;;;;17.20;7.68;;;;;;;6.25;63.18;98702.06;4935008;28;113958;-63
2021/11/27 07:28:35;;;;;;;20.98;8.13;;;;;;;6.25;63.12;98702.06;4930984;28;123856;-63
2021/11/27 07:31:02;;;;;;;20.75;8.43;;;;;;;6.23;62.90;98709.22;4941069;28;123993;-62
2021/11/27 07:33:34;;;;;;;20.27;8.05;;;;;;;6.23;63.12;98709.22;4925002;28;114258;-62
2021/11/27 07:36:01;;;;;;;17.88;7.93;;;;;;;6.23;63.19;98719.72;4960750;22;113937;-69
2021/11/27 07:38:28;;;;;;;23.00;8.65;;;;;;;6.22;63.39;98723.31;4906211;28;124591;-70
2021/11/27 07:40:56;;;;;;;22.00;8.25;;;;;;;6.22;63.04;98723.31;4907199;28;124391;-69
2021/11/27 07:43:24;;;;;;;21.95;8.60;;;;;;;6.21;63.04;98721.59;4909429;28;113106;-68
2021/11/27 07:46:03;;;;;;;18.55;8.60;;;;;;;6.20;63.38;98725.19;4914084;28;116144;-69
2021/11/27 07:48:49;;;;;;;20.60;8.73;;;;;;;6.21;63.18;98737.38;4923474;28;125015;-69
2021/11/27 07:51:25;;;;;;;24.13;8.85;;;;;;;6.21;63.25;98737.38;4902314;28;124233;-68
2021/11/27 07:53:55;;;;;;;21.42;8.93;;;;;;;6.21;63.09;98737.38;4922821;28;113908;-70
2021/11/27 07:56:22;;;;;;;22.73;9.20;;;;;;;6.20;63.34;98744.41;4908789;28;115095;-69
2021/11/27 07:58:50;;;;;;;25.42;9.75;;;;;;;6.20;63.25;98740.97;4910720;28;124303;-71
2021/11/27 08:01:17;;;;;;;25.15;9.68;;;;;;;6.22;63.26;98745.16;4912971;28;124006;-71
2021/11/27 08:03:46;;;;;;;26.75;9.95;;;;;;;6.24;63.17;98753.81;4914022;28;115532;-71
2021/11/27 08:06:13;;;;;;;22.15;8.98;;;;;;;6.26;63.29;98761.59;4911781;28;114824;-71
2021/11/27 08:08:44;;;;;;;28.23;10.00;;;;;;;6.27;63.49;98758.03;4899901;28;123950;-70
2021/11/27 08:11:11;;;;;;;29.70;10.88;;;;;;;6.30;63.27;98768.34;4906307;28;124487;-71
2021/11/27 08:13:42;;;;;;;29.10;10.40;;;;;;;6.31;63.42;98764.81;4903987;28;114622;-71
2021/11/27 08:16:09;;;;;;;29.35;11.43;;;;;;;6.34;63.31;98769.84;4912933;28;113018;-71
2021/11/27 08:18:37;;;;;;;30.63;10.82;;;;;;;6.37;63.36;98780.19;4926243;28;124455;-71
2021/11/27 08:21:04;;;;;;;30.17;10.65;;;;;;;6.39;63.55;98773.06;4910685;28;123684;-70
2021/11/27 08:23:48;;;;;;;29.92;10.60;;;;;;;6.42;63.24;98783.41;4913080;28;114155;-68
2021/11/27 08:26:15;;;;;;;31.45;10.93;;;;;;;6.43;63.34;98790.34;4902261;28;114384;-68
2021/11/27 08:28:42;;;;;;;26.88;10.32;;;;;;;6.46;63.27;98788.44;4905949;28;123859;-69
2021/11/27 08:31:09;;;;;;;30.85;11.38;;;;;;;6.42;63.41;98793.91;4903159;28;124020;-70
2021/11/27 08:33:36;;;;;;;26.05;10.13;;;;;;;6.41;63.37;98791.38;4910931;28;113695;-68
2021/11/27 08:36:04;;;;;;;27.17;10.55;;;;;;;6.40;63.21;98795.78;4896180;28;113645;-70
2021/11/27 08:38:31;;;;;;;28.20;9.98;;;;;;;6.40;63.34;98797.56;4900234;28;124470;-70
2021/11/27 08:40:58;;;;;;;28.77;11.10;;;;;;;6.40;63.17;98806.31;4905446;28;123859;-71
2021/11/27 08:43:26;;;;;;;29.02;10.73;;;;;;;6.41;63.54;98808.00;4904941;28;114321;-71
2021/11/27 08:45:54;;;;;;;30.25;10.73;;;;;;;6.41;63.24;98813.25;4908313;28;114008;-71
2021/11/27 08:48:21;;;;;;;29.45;10.68;;;;;;;6.42;63.33;98820.22;4907190;28;124795;-71
2021/11/27 08:50:48;;;;;;;28.83;10.32;;;;;;;6.42;63.54;98825.47;4899022;28;123688;-70
2021/11/27 08:53:15;;;;;;;31.40;10.88;;;;;;;6.41;63.38;98829.03;4907270;28;114739;-69
2021/11/27 08:55:43;;;;;;;31.13;10.52;;;;;;;6.41;63.19;98839.53;4907517;28;115117;-69
2021/11/27 08:58:11;;;;;;;29.20;10.27;;;;;;;6.42;63.32;98836.00;4910670;28;98535;-69
2021/11/27 09:00:40;;;;;;;30.83;10.95;;;;;;;6.41;63.28;98839.53;4902950;28;124482;-68
2021/11/27 09:03:07;;;;;;;30.58;10.32;;;;;;;6.44;63.38;98859.53;4905485;28;112800;-68
2021/11/27 09:05:34;;;;;;;27.77;10.80;;;;;;;6.46;63.72;98856.81;4910136;28;113020;-68
2021/11/27 09:08:02;;;;;;;31.67;11.02;;;;;;;6.50;63.82;98853.06;4903538;28;123871;-71
2021/11/27 09:10:29;;;;;;;30.25;11.23;;;;;;;6.53;63.18;98852.88;4906662;28;124522;-68
2021/11/27 09:12:58;;;;;;;26.60;10.93;;;;;;;6.52;63.55;98845.94;4912154;28;114003;-69
2021/11/27 09:15:26;;;;;;;28.98;10.88;;;;;;;6.55;63.65;98856.25;4906869;28;113918;-69
2021/11/27 09:17:55;;;;;;;25.27;10.10;;;;;;;6.59;63.75;98847.25;4891835;28;124112;-69
2021/11/27 09:20:23;;;;;;;25.73;10.00;;;;;;;6.66;64.30;98858.25;4897120;28;123895;-69
2021/11/27 09:22:50;;;;;;;23.33;10.25;;;;;;;6.70;63.50;98855.31;4910114;28;114443;-69
2021/11/27 09:25:17;;;;;;;28.00;10.10;;;;;;;6.74;63.50;98856.84;4913516;28;114287;-69
2021/11/27 09:27:44;;;;;;;22.65;9.75;;;;;;;6.79;63.49;98854.75;4895068;28;123839;-69
2021/11/27 09:30:12;;;;;;;21.15;9.15;;;;;;;6.82;63.72;98859.84;4891238;28;123862;-69
2021/11/27 09:32:39;;;;;;;21.35;7.82;;;;;;;6.86;63.66;98875.47;4893874;28;114505;-70
2021/11/27 09:35:07;;;;;;;20.17;8.13;;;;;;;6.87;63.58;98874.50;4894549;28;113651;-70
2021/11/27 09:37:34;;;;;;;20.20;7.57;;;;;;;6.85;63.43;98879.00;4906021;28;124584;-70
2021/11/27 09:40:05;;;;;;;18.88;8.07;;;;;;;6.85;63.51;98894.81;4891821;28;124183;-70
2021/11/27 09:42:36;;;;;;;19.25;7.78;;;;;;;6.88;63.72;98894.63;4892936;28;115219;-70
2021/11/27 09:45:05;;;;;;;19.88;7.82;;;;;;;6.92;63.35;98890.88;4906297;28;115049;-71
2021/11/27 09:47:33;;;;;;;16.45;7.35;;;;;;;6.94;63.29;98894.25;4903646;28;123958;-70
2021/11/27 09:50:04;;;;;;;18.33;8.13;;;;;;;6.94;63.57;98879.28;4909929;28;123960;-71
2021/11/27 09:52:32;;;;;;;16.63;7.28;;;;;;;6.97;63.40;98880.91;4913130;28;114303;-70
2021/11/27 09:55:01;;;;;;;17.45;7.55;;;;;;;6.99;63.74;98889.56;4908524;28;114581;-70
2021/11/27 09:57:29;;;;;;;17.95;7.22;;;;;;;7.00;63.08;98889.44;4900082;28;124395;-69
2021/11/27 09:59:56;;;;;;;17.60;7.78;;;;;;;7.01;63.36;98885.03;4906636;28;124239;-69
2021/11/27 10:02:23;;;;;;;17.35;6.93;;;;;;;7.02;63.21;98886.72;4906386;28;114360;-69
2021/11/27 10:05:13;;;;;;;17.67;7.28;;;;;;;7.05;63.47;98890.97;4934554;23;114113;-70
2021/11/27 10:07:42;;;;;;;19.02;8.68;;;;;;;7.09;63.40;98885.41;4981176;22;124035;-75
2021/11/27 10:10:11;;;;;;;19.17;7.90;;;;;;;7.16;63.60;98889.34;4968254;28;124030;-76
2021/11/27 10:12:41;;;;;;;17.08;7.63;;;;;;;7.22;63.74;98888.13;4954554;28;113773;-76
2021/11/27 10:15:10;;;;;;;19.02;8.10;;;;;;;7.29;63.61;98897.31;4957896;28;112370;-75
2021/11/27 10:17:38;;;;;;;18.13;7.95;;;;;;;7.37;63.63;98886.31;4973578;28;124755;-76
2021/11/27 10:20:07;;;;;;;18.67;8.40;;;;;;;7.43;63.56;98885.91;4979736;28;123231;-77
2021/11/27 10:22:37;;;;;;;16.67;8.05;;;;;;;7.51;63.77;98894.16;4988097;28;113698;-77
2021/11/27 10:25:25;;;;;;;18.77;7.88;;;;;;;7.62;63.77;98900.53;4954087;28;112770;-75
2021/11/27 10:28:06;;;;;;;19.13;7.03;;;;;;;7.71;63.46;98897.31;4968034;28;123335;-79
2021/11/27 10:30:40;;;;;;;15.80;6.72;;;;;;;7.77;63.75;98896.91;4967656;28;123807;-74
2021/11/27 10:33:08;;;;;;;15.13;6.18;;;;;;;7.82;63.26;98900.09;4975816;28;115453;-76
2021/11/27 10:35:35;;;;;;;17.42;6.53;;;;;;;7.87;63.49;98895.34;4988898;28;114355;-77
2021/11/27 10:38:07;;;;;;;14.40;6.43;;;;;;;7.92;63.57;98893.28;4987854;28;124509;-77
2021/11/27 10:40:34;;;;;;;12.60;5.68;;;;;;;7.97;63.01;98893.81;4980745;28;123787;-77
2021/11/27 10:43:06;;;;;;;11.73;5.22;;;;;;;8.06;63.54;98891.50;4994999;28;114656;-75
2021/11/27 10:45:36;;;;;;;15.40;5.22;;;;;;;8.12;63.43;98888.50;4994349;28;113276;-77
2021/11/27 10:48:10;;;;;;;12.40;4.57;;;;;;;8.18;62.92;98893.34;4992354;28;123731;-75
2021/11/27 10:50:53;;;;;;;10.63;5.00;;;;;;;8.22;62.84;98894.84;4989459;28;125313;-76
2021/11/27 10:53:33;;;;;;;12.18;4.43;;;;;;;8.25;62.66;98899.91;4987595;28;112325;-74
2021/11/27 10:56:09;;;;;;;10.25;4.10;;;;;;;8.30;63.03;98896.94;4990389;28;114028;-76
2021/11/27 10:59:03;;;;;;;12.13;4.28;;;;;;;8.34;62.76;98907.22;4987017;28;123958;-77
2021/11/27 11:01:31;;;;;;;12.93;4.53;;;;;;;8.38;62.62;98900.78;4978000;28;122963;-76
2021/11/27 11:04:15;;;;;;;12.57;4.00;;;;;;;8.42;62.40;98903.22;4991289;28;114290;-75
2021/11/27 11:06:42;;;;;;;9.85;3.80;;;;;;;8.47;62.45;98903.75;4990385;28;113948;-77
2021/11/27 11:09:12;;;;;;;12.98;3.95;;;;;;;8.50;62.41;98903.56;4989341;28;123298;-76
2021/11/27 11:11:39;;;;;;;12.68;4.80;;;;;;;8.53;62.57;98908.63;4991900;28;123729;-77
2021/11/27 11:14:28;;;;;;;12.77;4.55;;;;;;;8.59;62.08;98913.50;4985833;28;114476;-76
2021/11/27 11:16:57;;;;;;;13.40;4.40;;;;;;;8.63;61.95;98909.69;4985064;28;113007;-76
2021/11/27 11:19:25;;;;;;;11.48;4.70;;;;;;;8.66;62.20;98913.91;4988685;28;124285;-76
2021/11/27 11:22:12;;;;;;;9.75;3.97;;;;;;;8.67;61.85;98916.44;4988308;28;123920;-75
2021/11/27 11:24:42;;;;;;;10.60;4.28;;;;;;;8.65;61.65;98913.06;4989498;28;114510;-76
2021/11/27 11:27:10;;;;;;;10.30;4.30;;;;;;;8.62;61.56;98913.28;4990525;28;115880;-76
2021/11/27 11:29:45;;;;;;;12.82;4.43;;;;;;;8.57;61.45;98910.97;4982006;28;124404;-73
2021/11/27 11:32:15;;;;;;;;;;;;;;;8.53;61.69;98913.91;4996237;28;122951;-78
2021/11/27 11:34:44;;;;;;;9.18;4.70;;;;;;;8.53;61.45;98911.25;4980655;28;113827;-77
2021/11/27 11:37:11;;;;;;;16.05;5.28;;;;;;;8.53;61.55;98913.91;4998282;28;112746;-75
2021/11/27 11:39:38;;;;;;;14.60;5.68;;;;;;;8.52;61.72;98913.06;4985948;28;123192;-77
2021/11/27 11:42:07;;;;;;;17.20;6.55;;;;;;;8.51;61.46;98915.78;4992508;28;123044;-76
2021/11/27 11:44:36;;;;;;;20.77;7.32;;;;;;;8.53;61.33;98913.91;4986548;28;112510;-76
2021/11/27 11:47:04;;;;;;;20.05;8.07;;;;;;;8.53;61.23;98908.63;4990125;28;114271;-76